createdAt,value
2022-10-03T00:03:45.780Z,9.94
2022-10-03T00:08:53.660Z,9.94
2022-10-03T00:14:15.411Z,9.95
2022-10-03T00:19:28.122Z,9.93
2022-10-03T00:24:47.958Z,9.91
2022-10-03T00:30:13.871Z,9.91
2022-10-03T00:35:20.462Z,9.89
2022-10-03T00:40:49.654Z,9.89
2022-10-03T00:46:11.072Z,9.86
2022-10-03T00:51:43.960Z,9.87
2022-10-03T00:57:05.341Z,9.88
2022-10-03T01:02:33.139Z,9.88
2022-10-03T01:08:09.384Z,9.87
2022-10-03T01:13:27.748Z,9.84
2022-10-03T01:19:13.957Z,9.83
2022-10-03T01:24:36.829Z,9.86
2022-10-03T01:30:13.513Z,9.89
2022-10-03T01:35:23.330Z,9.94
2022-10-03T01:40:46.962Z,9.98
2022-10-03T01:46:15.929Z,10.00
2022-10-03T01:51:45.764Z,10.01
2022-10-03T01:57:04.382Z,10.03
2022-10-03T02:02:20.013Z,10.05
2022-10-03T02:07:52.716Z,10.09
2022-10-03T02:13:16.946Z,10.14
2022-10-03T02:18:47.881Z,10.18
2022-10-03T02:24:16.119Z,10.17
2022-10-03T02:29:18.402Z,10.18
2022-10-03T02:34:33.291Z,10.20
2022-10-03T02:39:43.359Z,10.20
2022-10-03T02:45:27.748Z,10.19
2022-10-03T02:51:12.914Z,10.22
2022-10-03T02:56:53.108Z,10.28
2022-10-03T03:02:12.087Z,10.33
2022-10-03T03:07:24.103Z,10.40
2022-10-03T03:12:45.270Z,10.43
2022-10-03T03:18:05.270Z,10.44
2022-10-03T03:23:56.097Z,10.43
2022-10-03T03:29:28.458Z,10.42
2022-10-03T03:34:34.524Z,10.43
2022-10-03T03:40:10.841Z,10.39
2022-10-03T03:45:41.565Z,10.36
2022-10-03T03:51:05.258Z,10.34
2022-10-03T03:56:38.099Z,10.37
2022-10-03T04:01:53.749Z,10.41
2022-10-03T04:07:16.300Z,10.45
2022-10-03T04:12:49.462Z,10.43
2022-10-03T04:18:28.558Z,10.45
2022-10-03T04:23:58.567Z,10.42
2022-10-03T04:29:44.045Z,10.39
2022-10-03T04:35:33.434Z,10.38
2022-10-03T04:41:00.968Z,10.36
2022-10-03T04:46:03.971Z,10.34
2022-10-03T04:51:24.759Z,10.29
2022-10-03T04:56:27.206Z,10.28
2022-10-03T05:02:02.469Z,10.28
2022-10-03T05:07:45.642Z,10.27
2022-10-03T05:12:55.873Z,10.29
2022-10-03T05:18:24.628Z,10.31
2022-10-03T05:24:03.342Z,10.34
2022-10-03T05:29:18.220Z,10.38
2022-10-03T05:34:42.713Z,10.40
2022-10-03T05:40:08.403Z,10.45
2022-10-03T05:45:32.565Z,10.50
2022-10-03T05:50:47.778Z,10.52
2022-10-03T05:56:08.166Z,10.56
2022-10-03T06:01:58.547Z,10.63
2022-10-03T06:07:29.667Z,10.67
2022-10-03T06:12:47.195Z,10.68
2022-10-03T06:18:01.288Z,10.73
2022-10-03T06:23:19.361Z,10.80
2022-10-03T06:28:30.998Z,10.87
2022-10-03T06:33:39.752Z,10.91
2022-10-03T06:39:16.249Z,10.88
2022-10-03T06:44:28.179Z,10.92
2022-10-03T06:49:49.028Z,11.00
2022-10-03T06:55:11.219Z,11.06
2022-10-03T07:00:21.491Z,11.08
2022-10-03T07:05:43.011Z,11.07
2022-10-03T07:11:00.088Z,11.10
2022-10-03T07:16:30.239Z,11.11
2022-10-03T07:21:48.028Z,11.06
2022-10-03T07:27:10.780Z,11.06
2022-10-03T07:32:30.326Z,11.01
2022-10-03T07:38:37.162Z,10.98
2022-10-03T07:44:20.830Z,10.97
2022-10-03T07:50:22.734Z,10.94
2022-10-03T07:55:53.537Z,10.86
2022-10-03T08:01:14.017Z,10.80
2022-10-03T08:06:47.073Z,10.75
2022-10-03T08:12:18.530Z,10.85
2022-10-03T08:17:57.711Z,11.08
2022-10-03T08:23:27.125Z,11.14
2022-10-03T08:28:57.444Z,11.17
2022-10-03T08:34:16.943Z,11.41
2022-10-03T08:39:38.732Z,11.85
2022-10-03T08:45:27.409Z,12.18
2022-10-03T08:51:11.778Z,12.24
2022-10-03T08:56:46.203Z,12.29
2022-10-03T09:02:14.077Z,12.35
2022-10-03T09:07:37.290Z,12.29
2022-10-03T09:12:42.923Z,12.20
2022-10-03T09:17:58.600Z,12.09
2022-10-03T09:23:10.434Z,12.12
2022-10-03T09:28:41.303Z,12.22
2022-10-03T09:34:08.181Z,12.44
2022-10-03T09:39:13.015Z,12.69
2022-10-03T09:44:33.330Z,13.04
2022-10-03T09:50:12.956Z,13.44
2022-10-03T09:56:11.327Z,13.82
2022-10-03T10:01:13.618Z,13.98
2022-10-03T10:06:33.996Z,14.34
2022-10-03T10:12:14.902Z,14.49
2022-10-03T10:17:43.082Z,14.34
2022-10-03T10:23:12.699Z,14.19
2022-10-03T10:28:52.916Z,13.87
2022-10-03T10:34:33.138Z,13.65
2022-10-03T10:40:13.866Z,13.61
2022-10-03T10:46:11.122Z,13.72
2022-10-03T10:51:15.676Z,13.80
2022-10-03T10:56:56.704Z,13.64
2022-10-03T11:02:24.365Z,13.53
2022-10-03T11:07:50.713Z,13.58
2022-10-03T11:13:35.590Z,13.63
2022-10-03T11:19:00.909Z,13.87
2022-10-03T11:24:35.045Z,14.18
2022-10-03T11:30:18.525Z,14.26
2022-10-03T11:35:51.365Z,14.25
2022-10-03T11:41:05.775Z,14.27
2022-10-03T11:46:47.669Z,14.23
2022-10-03T11:51:57.389Z,14.12
2022-10-03T11:57:08.020Z,13.93
2022-10-03T12:02:43.768Z,13.77
2022-10-03T12:08:53.500Z,13.60
2022-10-03T12:14:27.427Z,13.80
2022-10-03T12:19:40.521Z,14.19
2022-10-03T12:24:48.826Z,14.27
2022-10-03T12:30:03.309Z,14.13
2022-10-03T12:35:20.713Z,13.98
2022-10-03T12:40:24.391Z,14.00
2022-10-03T12:45:59.423Z,13.97
2022-10-03T12:51:30.304Z,14.13
2022-10-03T12:57:03.332Z,14.42
2022-10-03T13:02:22.904Z,14.58
2022-10-03T13:07:43.503Z,14.72
2022-10-03T13:13:07.412Z,14.89
2022-10-03T13:18:19.496Z,14.96
2022-10-03T13:23:32.786Z,15.01
2022-10-03T13:29:01.497Z,15.00
2022-10-03T13:34:14.764Z,14.91
2022-10-03T13:39:55.838Z,14.84
2022-10-03T13:45:06.999Z,14.58
2022-10-03T13:50:27.507Z,14.40
2022-10-03T13:55:53.923Z,14.18
2022-10-03T14:01:15.464Z,13.96
2022-10-03T14:06:53.593Z,13.78
2022-10-03T14:12:38.048Z,13.62
2022-10-03T14:17:53.385Z,13.51
2022-10-03T14:23:09.254Z,13.31
2022-10-03T14:28:37.715Z,13.12
2022-10-03T14:33:56.518Z,12.93
2022-10-03T14:39:21.928Z,12.92
2022-10-03T14:44:45.932Z,12.98
2022-10-03T14:49:59.581Z,13.02
2022-10-03T14:55:11.254Z,12.93
2022-10-03T15:00:44.264Z,12.89
2022-10-03T15:06:35.585Z,12.81
2022-10-03T15:11:48.078Z,12.69
2022-10-03T15:16:57.577Z,12.58
2022-10-03T15:22:14.447Z,12.52
2022-10-03T15:27:23.179Z,12.40
2022-10-03T15:32:34.253Z,12.27
2022-10-03T15:37:47.586Z,12.17
2022-10-03T15:43:05.614Z,12.05
2022-10-03T15:48:16.244Z,11.90
2022-10-03T15:53:37.714Z,11.74
2022-10-03T15:58:49.797Z,11.62
2022-10-03T16:04:00.051Z,11.54
2022-10-03T16:09:27.071Z,11.51
2022-10-03T16:15:03.740Z,11.53
2022-10-03T16:20:28.002Z,11.53
2022-10-03T16:25:57.537Z,11.54
2022-10-03T16:31:06.595Z,11.46
2022-10-03T16:36:17.252Z,11.36
2022-10-03T16:41:28.490Z,11.27
2022-10-03T16:46:38.798Z,11.17
2022-10-03T16:52:06.382Z,11.06
2022-10-03T16:57:21.032Z,10.94
2022-10-03T17:02:30.538Z,10.85
2022-10-03T17:07:45.643Z,10.78
2022-10-03T17:12:52.898Z,10.73
2022-10-03T17:18:14.628Z,10.66
2022-10-03T17:23:33.262Z,10.51
2022-10-03T17:28:58.970Z,10.41
2022-10-03T17:34:19.157Z,10.40
2022-10-03T17:39:47.871Z,10.42
2022-10-03T17:45:12.870Z,10.41
2022-10-03T17:50:22.793Z,10.44
2022-10-03T17:55:37.895Z,10.51
2022-10-03T18:00:46.724Z,10.58
2022-10-03T18:05:54.642Z,10.62
2022-10-03T18:11:02.850Z,10.62
2022-10-03T18:16:33.498Z,10.62
2022-10-03T18:21:39.211Z,10.62
2022-10-03T18:26:49.757Z,10.62
2022-10-03T18:32:00.837Z,10.62
2022-10-03T18:37:28.901Z,10.60
2022-10-03T18:42:32.143Z,10.61
2022-10-03T18:47:47.795Z,10.62
2022-10-03T18:52:53.746Z,10.63
2022-10-03T18:58:21.011Z,10.65
2022-10-03T19:03:35.628Z,10.66
2022-10-03T19:08:50.623Z,10.71
2022-10-03T19:13:55.890Z,10.74
2022-10-03T19:19:31.751Z,10.75
2022-10-03T19:24:57.247Z,10.76
2022-10-03T19:29:59.747Z,10.77
2022-10-03T19:35:05.618Z,10.79
2022-10-03T19:40:36.900Z,10.85
2022-10-03T19:45:41.218Z,10.91
2022-10-03T19:50:44.144Z,10.91
2022-10-03T19:55:47.851Z,10.89
2022-10-03T20:00:58.472Z,10.80
2022-10-03T20:06:26.985Z,10.68
2022-10-03T20:11:31.801Z,10.57
2022-10-03T20:16:42.562Z,10.55
2022-10-03T20:21:54.086Z,10.55
2022-10-03T20:27:02.881Z,10.53
2022-10-03T20:32:07.888Z,10.54
2022-10-03T20:37:19.546Z,10.48
2022-10-03T20:42:29.389Z,10.41
2022-10-03T20:47:31.990Z,10.41
2022-10-03T20:52:35.293Z,10.38
2022-10-03T20:57:38.469Z,10.31
2022-10-03T21:02:51.144Z,10.26
2022-10-03T21:08:03.979Z,10.19
2022-10-03T21:13:18.396Z,10.12
2022-10-03T21:18:22.665Z,10.06
2022-10-03T21:23:26.258Z,10.01
2022-10-03T21:28:33.855Z,10.00
2022-10-03T21:33:51.543Z,10.06
2022-10-03T21:38:58.235Z,10.12
2022-10-03T21:44:04.061Z,10.08
2022-10-03T21:49:21.080Z,10.10
2022-10-03T21:54:56.822Z,10.16
2022-10-03T22:00:07.540Z,10.18
2022-10-03T22:05:38.601Z,10.20
2022-10-03T22:10:52.859Z,10.25
2022-10-03T22:16:03.119Z,10.33
2022-10-03T22:21:52.232Z,10.43
2022-10-03T22:27:20.949Z,10.49
2022-10-03T22:32:30.437Z,10.51
2022-10-03T22:37:33.422Z,10.51
2022-10-03T22:42:43.643Z,10.49
2022-10-03T22:47:52.720Z,10.49
2022-10-03T22:52:56.758Z,10.48
2022-10-03T22:58:01.907Z,10.48
2022-10-03T23:03:16.230Z,10.51
2022-10-03T23:08:26.722Z,10.54
2022-10-03T23:13:39.697Z,10.53
2022-10-03T23:18:52.446Z,10.46
2022-10-03T23:24:18.695Z,10.42
2022-10-03T23:29:22.176Z,10.43
2022-10-03T23:34:37.239Z,10.45
2022-10-03T23:40:02.291Z,10.45
2022-10-03T23:45:10.009Z,10.42
2022-10-03T23:50:23.012Z,10.41
2022-10-03T23:55:29.498Z,10.46
